createdAt,value
2018-03-24T00:18:33.033Z,1.30
2018-03-24T00:39:03.800Z,1.10
2018-03-24T00:41:33.016Z,1.20
2018-03-24T00:44:01.288Z,1.20
2018-03-24T01:04:34.071Z,1.00
2018-03-24T01:07:02.331Z,1.00
2018-03-24T01:09:30.608Z,0.90
2018-03-24T01:30:02.917Z,0.90
2018-03-24T01:32:31.187Z,1.00
2018-03-24T01:34:59.469Z,1.00
2018-03-24T01:55:31.550Z,0.80
2018-03-24T01:57:59.860Z,0.80
2018-03-24T02:00:28.099Z,0.80
2018-03-24T02:02:56.621Z,0.70
2018-03-24T02:05:24.925Z,0.70
2018-03-24T02:07:53.220Z,0.70
2018-03-24T02:28:27.289Z,0.50
2018-03-24T02:30:55.534Z,0.40
2018-03-24T02:33:23.825Z,0.40
2018-03-24T02:35:52.810Z,0.40
2018-03-24T02:38:21.885Z,0.40
2018-03-24T02:40:50.120Z,0.30
2018-03-24T02:43:18.678Z,0.30
2018-03-24T02:45:47.682Z,0.40
2018-03-24T02:48:15.964Z,0.30
2018-03-24T02:50:44.302Z,0.40
2018-03-24T02:53:12.609Z,0.40
2018-03-24T02:55:40.912Z,0.40
2018-03-24T02:58:10.104Z,0.30
2018-03-24T03:00:38.391Z,0.30
2018-03-24T03:03:06.649Z,0.40
2018-03-24T03:05:35.686Z,0.30
2018-03-24T03:08:03.992Z,0.30
2018-03-24T03:10:32.232Z,0.30
2018-03-24T03:13:00.499Z,0.30
2018-03-24T03:33:33.717Z,0.20
2018-03-24T03:36:02.773Z,0.20
2018-03-24T03:38:31.041Z,0.20
2018-03-24T03:40:59.299Z,0.20
2018-03-24T03:43:27.819Z,0.20
2018-03-24T03:45:56.133Z,0.10
2018-03-24T03:48:25.134Z,0.10
2018-03-24T04:08:56.291Z,0.00
2018-03-24T04:11:25.335Z,-0.10
2018-03-24T04:13:53.619Z,0.00
2018-03-24T04:16:21.912Z,0.00
2018-03-24T04:18:50.183Z,-0.10
2018-03-24T04:21:18.480Z,-0.10
2018-03-24T04:23:46.781Z,-0.20
2018-03-24T04:26:15.143Z,-0.20
2018-03-24T04:46:45.167Z,-0.20
2018-03-24T04:49:13.450Z,-0.20
2018-03-24T04:51:41.732Z,-0.20
2018-03-24T04:54:10.025Z,-0.20
2018-03-24T04:56:38.444Z,-0.20
2018-03-24T05:17:08.435Z,-0.40
2018-03-24T05:19:36.732Z,-0.40
2018-03-24T05:22:05.037Z,-0.30
2018-03-24T05:24:34.116Z,-0.40
2018-03-24T05:27:02.484Z,-0.40
2018-03-24T05:29:30.774Z,-0.40
2018-03-24T05:31:59.501Z,-0.30
2018-03-24T05:34:28.573Z,-0.30
2018-03-24T05:36:57.604Z,-0.20
2018-03-24T05:39:25.979Z,-0.20
2018-03-24T05:41:55.085Z,-0.30
2018-03-24T05:44:24.098Z,-0.30
2018-03-24T06:04:55.026Z,-0.20
2018-03-24T06:07:24.112Z,-0.10
2018-03-24T06:09:52.421Z,-0.10
2018-03-24T06:12:21.460Z,0.00
2018-03-24T06:14:49.743Z,-0.10
2018-03-24T06:17:18.020Z,0.00
2018-03-24T06:37:47.368Z,-0.10
2018-03-24T06:58:20.089Z,0.30
2018-03-24T07:00:48.590Z,0.40
2018-03-24T07:03:16.922Z,0.40
2018-03-24T07:23:55.948Z,1.00
2018-03-24T07:26:24.241Z,1.10
2018-03-24T07:28:52.668Z,1.30
2018-03-24T07:31:21.237Z,1.40
2018-03-24T07:33:49.534Z,1.40
2018-03-24T07:36:17.843Z,1.60
2018-03-24T07:38:46.347Z,1.60
2018-03-24T07:41:14.579Z,1.70
2018-03-24T07:43:42.864Z,1.70
2018-03-24T07:46:11.302Z,1.90
2018-03-24T08:06:41.265Z,2.50
2018-03-24T08:09:09.771Z,2.60
2018-03-24T08:29:39.984Z,3.20
2018-03-24T08:32:08.296Z,3.30
2018-03-24T08:34:36.536Z,3.40
2018-03-24T08:37:04.841Z,3.60
2018-03-24T08:39:33.329Z,3.90
2018-03-24T09:00:03.054Z,4.40
2018-03-24T09:20:35.707Z,4.70
2018-03-24T09:41:07.182Z,4.90
2018-03-24T09:43:35.618Z,4.90
2018-03-24T09:46:03.850Z,5.00
2018-03-24T09:48:32.135Z,5.10
2018-03-24T09:51:00.798Z,5.20
2018-03-24T09:53:29.085Z,5.20
2018-03-24T09:55:58.112Z,5.40
2018-03-24T09:58:26.523Z,5.30
2018-03-24T10:00:54.792Z,5.40
2018-03-24T10:03:23.266Z,5.50
2018-03-24T10:05:51.788Z,5.50
2018-03-24T10:08:20.040Z,5.60
2018-03-24T10:10:48.291Z,5.70
2018-03-24T10:13:16.566Z,5.80
2018-03-24T10:15:44.884Z,5.90
2018-03-24T10:18:13.169Z,6.00
2018-03-24T10:20:58.335Z,6.10
2018-03-24T10:23:47.375Z,6.20
2018-03-24T10:26:15.885Z,6.30
2018-03-24T10:28:44.171Z,6.40
2018-03-24T10:31:12.427Z,6.40
2018-03-24T10:33:46.353Z,6.50
2018-03-24T10:36:14.581Z,6.60
2018-03-24T10:56:46.430Z,7.50
2018-03-24T10:59:14.646Z,7.60
2018-03-24T11:19:46.021Z,8.20
2018-03-24T11:22:14.265Z,8.40
2018-03-24T11:24:43.349Z,8.60
2018-03-24T11:27:11.602Z,8.60
2018-03-24T11:29:40.704Z,8.70
2018-03-24T11:32:08.996Z,8.60
2018-03-24T11:34:37.232Z,8.70
2018-03-24T11:37:05.572Z,8.80
2018-03-24T11:39:33.874Z,8.80
2018-03-24T11:42:02.532Z,8.90
2018-03-24T11:44:30.829Z,9.00
2018-03-24T11:46:59.049Z,9.20
2018-03-24T11:49:27.538Z,9.30
2018-03-24T12:09:59.447Z,10.10
2018-03-24T12:12:27.949Z,10.30
2018-03-24T12:33:01.581Z,11.90
2018-03-24T12:35:30.088Z,12.00
2018-03-24T12:37:58.352Z,12.10
2018-03-24T12:40:26.852Z,12.40
2018-03-24T13:01:00.040Z,12.10
2018-03-24T13:21:32.132Z,10.90
2018-03-24T13:24:00.616Z,10.90
2018-03-24T13:44:30.729Z,11.10
2018-03-24T14:05:02.000Z,12.50
2018-03-24T14:07:30.288Z,12.50
2018-03-24T14:28:00.757Z,20.20
2018-03-24T14:30:29.026Z,20.70
2018-03-24T14:32:57.293Z,20.90
2018-03-24T14:35:25.720Z,20.80
2018-03-24T14:55:57.256Z,22.50
2018-03-24T14:58:25.556Z,22.60
2018-03-24T15:00:53.807Z,23.10
2018-03-24T15:03:22.100Z,23.30
2018-03-24T15:05:50.379Z,23.60
2018-03-24T15:08:18.691Z,23.20
2018-03-24T15:10:46.961Z,23.30
2018-03-24T15:13:15.406Z,23.60
2018-03-24T15:15:43.717Z,23.30
2018-03-24T15:18:12.017Z,23.60
2018-03-24T15:38:42.628Z,22.90
2018-03-24T15:59:14.740Z,23.10
2018-03-24T16:01:43.028Z,22.80
2018-03-24T16:04:11.419Z,21.40
2018-03-24T16:06:40.492Z,18.50
2018-03-24T16:27:09.917Z,16.20
2018-03-24T16:47:42.714Z,15.20
2018-03-24T16:50:11.224Z,15.10
2018-03-24T16:52:39.455Z,14.80
2018-03-24T16:55:07.773Z,14.40
2018-03-24T17:15:38.746Z,13.00
2018-03-24T17:18:07.172Z,12.50
2018-03-24T17:38:36.151Z,10.50
2018-03-24T17:41:05.326Z,10.20
2018-03-24T17:43:33.606Z,10.20
2018-03-24T18:04:05.404Z,9.10
2018-03-24T18:24:37.137Z,8.40
2018-03-24T18:45:10.883Z,7.90
2018-03-24T18:47:39.119Z,7.80
2018-03-24T18:50:08.202Z,7.70
2018-03-24T18:52:36.677Z,7.70
2018-03-24T18:55:04.947Z,7.70
2018-03-24T18:57:33.231Z,7.60
2018-03-24T19:00:01.702Z,7.60
2018-03-24T19:02:30.015Z,7.60
2018-03-24T19:04:58.315Z,7.50
2018-03-24T19:07:26.804Z,7.50
2018-03-24T19:27:57.968Z,7.10
2018-03-24T19:48:27.607Z,6.50
2018-03-24T19:50:56.606Z,6.40
2018-03-24T19:53:24.895Z,6.30
2018-03-24T19:55:53.336Z,6.30
2018-03-24T20:16:27.181Z,5.80
2018-03-24T20:18:56.779Z,5.60
2018-03-24T20:21:25.059Z,5.50
2018-03-24T20:23:53.423Z,5.50
2018-03-24T20:26:22.055Z,5.50
2018-03-24T20:28:51.232Z,5.30
2018-03-24T20:31:19.570Z,5.30
2018-03-24T20:33:48.063Z,5.30
2018-03-24T20:36:16.340Z,5.20
2018-03-24T20:38:44.578Z,5.10
2018-03-24T20:41:13.989Z,4.90
2018-03-24T20:43:42.264Z,4.90
2018-03-24T20:46:10.535Z,4.90
2018-03-24T20:48:38.803Z,4.80
2018-03-24T20:51:07.079Z,4.80
2018-03-24T20:53:35.351Z,4.70
2018-03-24T20:56:03.652Z,4.70
2018-03-24T20:58:33.387Z,4.50
2018-03-24T21:01:01.656Z,4.50
2018-03-24T21:03:30.049Z,4.50
2018-03-24T21:05:59.088Z,4.50
2018-03-24T21:08:27.393Z,4.50
2018-03-24T21:10:55.873Z,4.50
2018-03-24T21:31:29.160Z,4.50
2018-03-24T21:33:57.575Z,4.50
2018-03-24T21:36:25.814Z,4.40
2018-03-24T21:56:57.690Z,4.30
2018-03-24T21:59:26.730Z,4.20
2018-03-24T22:01:54.975Z,4.20
2018-03-24T22:04:23.238Z,4.10
2018-03-24T22:06:51.548Z,4.10
2018-03-24T22:09:19.808Z,4.10
2018-03-24T22:11:48.322Z,4.10
2018-03-24T22:14:16.602Z,4.10
2018-03-24T22:16:44.884Z,4.10
2018-03-24T22:37:16.516Z,3.70
2018-03-24T22:39:45.659Z,3.60
2018-03-24T22:42:14.975Z,3.60
2018-03-24T23:02:46.706Z,3.40
2018-03-24T23:05:15.744Z,3.30
2018-03-24T23:07:44.011Z,3.30
2018-03-24T23:10:12.668Z,3.30
2018-03-24T23:12:41.658Z,3.30
2018-03-24T23:15:10.712Z,3.30
2018-03-24T23:17:39.043Z,3.30
2018-03-24T23:38:08.171Z,3.10
2018-03-24T23:40:37.406Z,2.80
2018-03-24T23:43:05.675Z,2.90
2018-03-24T23:45:34.018Z,2.80
2018-03-24T23:48:03.097Z,2.60
2018-03-24T23:50:31.366Z,2.60
2018-03-24T23:52:59.627Z,2.50
2018-03-24T23:55:28.036Z,2.50
2018-03-24T23:57:56.320Z,2.60
